createdAt,value
2022-12-05T00:05:18.988Z,77.46
2022-12-05T00:11:16.346Z,76.86
2022-12-05T00:17:08.709Z,77.92
2022-12-05T00:23:01.359Z,77.56
2022-12-05T00:28:54.395Z,78.39
2022-12-05T00:34:47.099Z,77.56
2022-12-05T00:40:40.266Z,77.23
2022-12-05T00:46:34.157Z,77.42
2022-12-05T00:52:27.437Z,77.93
2022-12-05T00:58:19.911Z,77.86
2022-12-05T01:04:15.947Z,77.72
2022-12-05T01:10:08.290Z,77.82
2022-12-05T01:16:01.528Z,77.52
2022-12-05T01:21:55.467Z,77.84
2022-12-05T01:27:48.287Z,77.56
2022-12-05T01:33:41.267Z,77.42
2022-12-05T01:39:33.968Z,77.60
2022-12-05T01:45:36.030Z,77.35
2022-12-05T01:51:28.316Z,77.14
2022-12-05T01:57:22.846Z,77.06
2022-12-05T02:03:19.830Z,77.80
2022-12-05T02:09:12.468Z,77.80
2022-12-05T02:15:14.049Z,77.26
2022-12-05T02:21:36.988Z,77.09
2022-12-05T02:28:02.508Z,76.82
2022-12-05T02:34:01.168Z,76.88
2022-12-05T02:39:59.601Z,76.98
2022-12-05T02:45:57.151Z,76.38
2022-12-05T02:51:56.970Z,76.35
2022-12-05T02:57:55.346Z,75.81
2022-12-05T03:03:48.500Z,76.13
2022-12-05T03:09:56.946Z,75.93
2022-12-05T03:15:53.847Z,75.92
2022-12-05T03:21:49.417Z,76.01
2022-12-05T03:27:52.578Z,75.54
2022-12-05T03:33:50.818Z,75.70
2022-12-05T03:39:49.258Z,75.70
2022-12-05T03:45:50.439Z,75.30
2022-12-05T03:51:51.446Z,75.84
2022-12-05T03:57:52.307Z,75.55
2022-12-05T04:03:52.146Z,75.07
2022-12-05T04:09:49.747Z,75.20
2022-12-05T04:16:01.143Z,74.92
2022-12-05T04:21:57.010Z,75.00
2022-12-05T04:28:21.642Z,75.05
2022-12-05T04:34:16.327Z,75.12
2022-12-05T04:40:18.186Z,74.53
2022-12-05T04:46:13.811Z,74.83
2022-12-05T04:52:12.088Z,74.06
2022-12-05T04:58:23.586Z,74.13
2022-12-05T05:04:21.885Z,73.88
2022-12-05T05:10:19.274Z,74.05
2022-12-05T05:16:20.997Z,73.34
2022-12-05T05:22:13.319Z,73.68
2022-12-05T05:28:05.688Z,73.23
2022-12-05T05:34:03.219Z,72.80
2022-12-05T05:40:02.001Z,73.01
2022-12-05T05:45:58.207Z,72.90
2022-12-05T05:51:50.931Z,72.60
2022-12-05T05:57:44.956Z,72.97
2022-12-05T06:03:38.627Z,72.66
2022-12-05T06:09:30.985Z,73.02
2022-12-05T06:15:24.360Z,72.25
2022-12-05T06:21:17.772Z,72.00
2022-12-05T06:27:10.076Z,72.26
2022-12-05T06:33:03.095Z,72.31
2022-12-05T06:39:00.038Z,72.33
2022-12-05T06:44:53.095Z,72.53
2022-12-05T06:50:52.976Z,72.60
2022-12-05T06:56:46.035Z,73.10
2022-12-05T07:02:38.268Z,72.81
2022-12-05T07:08:30.572Z,72.20
2022-12-05T07:21:10.112Z,71.65
2022-12-05T07:26:48.258Z,71.35
2022-12-05T07:32:40.886Z,71.77
2022-12-05T07:38:34.058Z,71.55
2022-12-05T07:44:27.198Z,71.10
2022-12-05T07:50:20.195Z,70.52
2022-12-05T07:56:19.224Z,71.02
2022-12-05T08:02:12.340Z,70.06
2022-12-05T08:08:06.610Z,69.73
2022-12-05T08:13:59.408Z,70.25
2022-12-05T08:19:52.237Z,69.97
2022-12-05T08:25:44.545Z,70.21
2022-12-05T08:31:44.701Z,69.20
2022-12-05T08:37:37.336Z,69.10
2022-12-05T08:43:31.625Z,69.81
2022-12-05T08:49:24.461Z,70.51
2022-12-05T08:55:17.315Z,71.23
2022-12-05T09:01:20.697Z,71.42
2022-12-05T09:07:13.494Z,70.94
2022-12-05T09:13:06.475Z,70.86
2022-12-05T09:18:59.714Z,70.47
2022-12-05T09:24:54.399Z,69.83
2022-12-05T09:30:59.451Z,69.45
2022-12-05T09:37:05.639Z,69.22
2022-12-05T09:43:07.465Z,69.42
2022-12-05T09:49:02.870Z,69.02
2022-12-05T09:54:56.084Z,68.48
2022-12-05T10:00:52.401Z,68.12
2022-12-05T10:07:07.905Z,68.04
2022-12-05T10:13:15.035Z,68.20
2022-12-05T10:19:16.255Z,68.74
2022-12-05T10:25:12.984Z,67.78
2022-12-05T10:31:10.553Z,67.57
2022-12-05T10:37:24.455Z,67.57
2022-12-05T10:43:26.847Z,66.77
2022-12-05T10:49:20.460Z,66.99
2022-12-05T10:55:16.694Z,65.87
2022-12-05T11:01:14.683Z,66.40
2022-12-05T11:07:07.552Z,66.78
2022-12-05T11:13:00.964Z,66.05
2022-12-05T11:18:53.795Z,65.62
2022-12-05T11:24:46.436Z,65.14
2022-12-05T11:30:38.914Z,64.46
2022-12-05T11:36:43.173Z,64.66
2022-12-05T11:42:48.926Z,64.42
2022-12-05T11:49:13.455Z,65.41
2022-12-05T11:55:25.278Z,65.44
2022-12-05T12:02:01.027Z,65.38
2022-12-05T12:08:18.267Z,65.72
2022-12-05T12:14:31.114Z,65.34
2022-12-05T12:26:47.942Z,65.70
2022-12-05T12:33:02.194Z,66.29
2022-12-05T12:38:57.590Z,65.67
2022-12-05T12:45:15.096Z,66.12
2022-12-05T12:51:13.838Z,66.64
2022-12-05T12:57:24.335Z,66.54
2022-12-05T13:03:19.515Z,66.35
2022-12-05T13:09:21.664Z,66.32
2022-12-05T13:15:18.695Z,65.56
2022-12-05T13:21:11.296Z,66.09
2022-12-05T13:27:10.444Z,66.05
2022-12-05T13:33:09.129Z,66.57
2022-12-05T13:39:25.036Z,66.53
2022-12-05T13:45:20.381Z,67.04
2022-12-05T13:51:31.430Z,67.08
2022-12-05T13:57:39.008Z,66.83
2022-12-05T14:03:33.943Z,66.89
2022-12-05T14:09:48.292Z,67.18
2022-12-05T14:15:51.494Z,66.96
2022-12-05T14:22:17.730Z,67.13
2022-12-05T14:28:35.875Z,67.40
2022-12-05T14:34:30.394Z,67.57
2022-12-05T14:40:35.676Z,67.56
2022-12-05T14:46:33.427Z,67.51
2022-12-05T14:52:27.835Z,68.02
2022-12-05T14:58:34.586Z,67.84
2022-12-05T15:04:41.077Z,68.07
2022-12-05T15:10:36.404Z,67.69
2022-12-05T15:16:30.648Z,67.79
2022-12-05T15:22:27.196Z,68.15
2022-12-05T15:28:20.219Z,67.89
2022-12-05T15:34:15.974Z,67.83
2022-12-05T15:40:09.375Z,68.14
2022-12-05T15:46:26.236Z,68.35
2022-12-05T15:52:59.860Z,68.18
2022-12-05T15:59:25.569Z,68.56
2022-12-05T16:05:29.203Z,68.80
2022-12-05T16:11:24.086Z,68.52
2022-12-05T16:17:19.560Z,68.60
2022-12-05T16:23:33.864Z,67.96
2022-12-05T16:29:30.326Z,67.95
2022-12-05T16:35:34.747Z,67.89
2022-12-05T16:41:39.331Z,68.20
2022-12-05T16:47:55.735Z,67.67
2022-12-05T16:53:56.599Z,67.44
2022-12-05T16:59:50.105Z,67.43
2022-12-05T17:05:42.777Z,66.94
2022-12-05T17:11:38.165Z,67.18
2022-12-05T17:17:30.701Z,66.96
2022-12-05T17:23:23.695Z,67.15
2022-12-05T17:29:16.838Z,66.61
2022-12-05T17:35:16.324Z,66.59
2022-12-05T17:41:20.535Z,66.46
2022-12-05T17:47:12.861Z,66.32
2022-12-05T17:53:07.514Z,66.45
2022-12-05T17:59:02.902Z,66.19
2022-12-05T18:04:59.302Z,66.34
2022-12-05T18:10:52.008Z,65.81
2022-12-05T18:16:44.843Z,65.92
2022-12-05T18:22:38.156Z,65.73
2022-12-05T18:28:31.112Z,66.17
2022-12-05T18:34:24.520Z,65.83
2022-12-05T18:40:16.856Z,65.58
2022-12-05T18:46:10.286Z,65.69
2022-12-05T18:52:05.614Z,65.83
2022-12-05T18:57:59.386Z,65.31
2022-12-05T19:03:51.847Z,65.58
2022-12-05T19:09:43.978Z,65.71
2022-12-05T19:15:37.906Z,65.75
2022-12-05T19:21:32.393Z,65.62
2022-12-05T19:27:25.372Z,65.87
2022-12-05T19:33:18.158Z,65.67
2022-12-05T19:39:23.648Z,65.34
2022-12-05T19:45:18.008Z,65.88
2022-12-05T19:51:11.274Z,65.66
2022-12-05T19:57:04.321Z,65.68
2022-12-05T20:02:57.621Z,66.17
2022-12-05T20:08:52.803Z,66.33
2022-12-05T20:14:45.250Z,65.81
2022-12-05T20:20:38.164Z,65.94
2022-12-05T20:26:33.911Z,65.58
2022-12-05T20:32:26.103Z,65.98
2022-12-05T20:38:19.754Z,66.13
2022-12-05T20:44:15.375Z,66.62
2022-12-05T20:50:08.435Z,66.92
2022-12-05T20:56:08.381Z,67.03
2022-12-05T21:02:01.851Z,67.90
2022-12-05T21:07:54.302Z,66.99
2022-12-05T21:13:47.611Z,67.55
2022-12-05T21:19:40.102Z,67.45
2022-12-05T21:25:35.490Z,67.71
2022-12-05T21:31:34.164Z,67.97
2022-12-05T21:37:26.386Z,67.77
2022-12-05T21:43:19.111Z,67.89
2022-12-05T21:49:11.703Z,67.42
2022-12-05T21:55:04.116Z,67.10
2022-12-05T22:00:56.640Z,67.14
2022-12-05T22:06:49.392Z,67.12
2022-12-05T22:12:41.303Z,67.28
2022-12-05T22:18:33.601Z,66.96
2022-12-05T22:24:26.626Z,67.05
2022-12-05T22:30:19.216Z,66.94
2022-12-05T22:36:14.358Z,67.43
2022-12-05T22:42:06.510Z,67.46
2022-12-05T22:47:59.461Z,67.52
2022-12-05T22:53:54.054Z,67.63
2022-12-05T22:59:46.251Z,67.34
2022-12-05T23:05:42.616Z,67.15
2022-12-05T23:11:36.471Z,67.44
2022-12-05T23:17:28.091Z,67.19
2022-12-05T23:23:20.469Z,67.06
2022-12-05T23:29:13.600Z,66.96
2022-12-05T23:35:05.881Z,66.62
2022-12-05T23:41:03.765Z,66.73
2022-12-05T23:46:56.748Z,66.79
2022-12-05T23:52:49.773Z,66.78
2022-12-05T23:58:42.931Z,66.65
